Time;durP1;ratioP1;P1;durP2;ratioP2;P2;SDS_P1;SDS_P2;PMS_P1;PMS_P2;Temp;Humidity;BMP_temperature;BMP_pressure;BME280_temperature;BME280_humidity;BME280_pressure;Samples;Min_cycle;Max_cycle;Signal;HPM_P1;HPM_P2
2021/06/18 00:00:48;;;;;;;9.00;3.85;;;;;;;24.34;65.40;99878.44;5016705;28;20100;-75
2021/06/18 00:03:15;;;;;;;9.15;4.07;;;;;;;24.25;65.90;99874.13;5016443;28;20049;-77
2021/06/18 00:05:42;;;;;;;8.60;4.38;;;;;;;24.24;66.28;99862.38;5015524;28;20352;-77
2021/06/18 00:08:08;;;;;;;11.52;4.35;;;;;;;24.30;65.83;99862.63;5016346;28;20438;-77
2021/06/18 00:10:35;;;;;;;10.90;4.70;;;;;;;24.28;65.98;99851.91;5016565;28;20050;-76
2021/06/18 00:13:02;;;;;;;11.90;4.63;;;;;;;24.24;65.30;99829.63;5016423;28;20403;-75
2021/06/18 00:15:28;;;;;;;12.05;4.97;;;;;;;24.37;65.33;99833.56;5016465;28;20050;-77
2021/06/18 00:17:55;;;;;;;10.82;6.05;;;;;;;24.26;65.99;99827.59;5015125;28;20064;-76
2021/06/18 00:20:22;;;;;;;9.80;5.53;;;;;;;24.29;65.75;99826.34;5003624;28;20145;-76
2021/06/18 00:22:49;;;;;;;8.63;5.63;;;;;;;24.27;65.97;99834.72;4995925;28;20439;-77
2021/06/18 00:25:15;;;;;;;13.27;5.55;;;;;;;24.33;65.73;99834.97;5011354;28;20049;-74
2021/06/18 00:27:42;;;;;;;13.32;5.90;;;;;;;24.25;65.85;99830.50;4996684;28;20181;-76
2021/06/18 00:30:10;;;;;;;16.52;5.85;;;;;;;24.17;66.50;99833.34;4995208;28;20047;-76
2021/06/18 00:32:38;;;;;;;15.23;6.15;;;;;;;24.19;66.37;99826.63;4996618;28;20058;-76
2021/06/18 00:35:05;;;;;;;8.65;5.63;;;;;;;24.10;66.69;99827.78;4996037;28;20054;-75
2021/06/18 00:37:34;;;;;;;11.80;5.97;;;;;;;24.14;66.57;99837.28;4995159;28;20093;-76
2021/06/18 00:40:02;;;;;;;10.82;6.80;;;;;;;24.14;67.04;99834.56;4995345;28;20051;-75
2021/06/18 00:42:29;;;;;;;9.07;5.80;;;;;;;24.04;67.56;99844.88;4996466;28;20089;-75
2021/06/18 00:44:55;;;;;;;10.85;6.35;;;;;;;24.00;67.38;99845.28;4996252;28;20042;-75
2021/06/18 00:47:24;;;;;;;10.05;7.00;;;;;;;24.05;67.23;99838.38;4996387;28;20062;-75
2021/06/18 00:49:54;;;;;;;13.10;7.10;;;;;;;23.86;67.58;99813.44;4995846;28;20407;-75
2021/06/18 00:52:22;;;;;;;26.92;14.57;;;;;;;23.94;67.79;99824.22;4996067;28;20050;-75
2021/06/18 00:54:49;;;;;;;19.60;14.88;;;;;;;23.90;68.07;99831.09;4995933;28;20050;-75
2021/06/18 00:57:17;;;;;;;32.40;28.90;;;;;;;23.86;68.30;99832.50;4996082;28;20092;-76
2021/06/18 00:59:44;;;;;;;34.47;28.80;;;;;;;23.86;68.36;99818.88;4996274;28;20050;-75
2021/06/18 01:02:10;;;;;;;30.42;24.15;;;;;;;23.84;68.63;99827.25;4995779;28;20100;-76
2021/06/18 01:04:40;;;;;;;29.33;20.83;;;;;;;23.83;68.63;99828.28;5010856;28;20061;-76
2021/06/18 01:07:26;;;;;;;20.77;16.98;;;;;;;23.77;69.11;99836.34;4996177;28;20124;-76
2021/06/18 01:10:22;;;;;;;19.70;13.40;;;;;;;23.79;68.68;99837.03;4994841;28;20050;-75
2021/06/18 01:12:58;;;;;;;14.95;11.18;;;;;;;23.72;69.05;99828.75;4994802;28;20050;-75
2021/06/18 01:15:40;;;;;;;19.40;11.77;;;;;;;23.70;69.35;99826.19;4995772;28;20058;-75
2021/06/18 01:18:14;;;;;;;17.05;9.35;;;;;;;23.74;68.64;99823.94;4995693;28;20495;-76
2021/06/18 01:21:14;;;;;;;14.55;7.97;;;;;;;23.71;69.23;99824.34;5010855;28;20050;-76
2021/06/18 01:23:56;;;;;;;13.60;7.65;;;;;;;23.71;68.85;99825.16;5015297;28;20360;-75
2021/06/18 01:26:23;;;;;;;13.00;7.05;;;;;;;23.67;69.44;99817.56;5014498;28;20348;-76
2021/06/18 01:28:58;;;;;;;19.38;7.75;;;;;;;23.66;68.84;99815.88;5015474;28;20109;-76
2021/06/18 01:31:44;;;;;;;17.23;8.02;;;;;;;23.64;69.27;99826.94;5015518;28;20108;-76
2021/06/18 01:34:16;;;;;;;12.82;7.38;;;;;;;23.65;69.33;99834.13;5014441;28;20105;-75
2021/06/18 01:36:50;;;;;;;17.00;8.18;;;;;;;23.59;69.26;99829.41;5019392;28;20045;-76
2021/06/18 01:39:18;;;;;;;15.30;8.30;;;;;;;23.64;68.80;99835.13;5019150;28;20050;-76
2021/06/18 01:41:47;;;;;;;15.38;8.13;;;;;;;23.50;69.48;99822.34;5019003;28;20436;-76
2021/06/18 01:44:15;;;;;;;13.50;8.35;;;;;;;23.58;69.57;99833.16;5019187;28;20050;-76
2021/06/18 01:46:46;;;;;;;15.85;8.40;;;;;;;23.53;69.63;99849.22;5019289;28;20089;-75
2021/06/18 01:49:13;;;;;;;17.50;8.02;;;;;;;23.57;69.47;99853.25;5018702;28;20105;-75
2021/06/18 01:51:43;;;;;;;13.25;7.13;;;;;;;23.50;69.54;99849.59;5019070;28;20100;-76
2021/06/18 01:54:12;;;;;;;15.07;7.90;;;;;;;23.50;69.95;99841.41;5018658;28;20363;-76
2021/06/18 01:56:41;;;;;;;20.02;7.68;;;;;;;23.42;70.08;99835.03;5018705;28;20050;-76
2021/06/18 01:59:08;;;;;;;14.60;8.48;;;;;;;23.43;69.97;99833.16;5019045;28;20124;-75
2021/06/18 02:01:44;;;;;;;15.15;6.75;;;;;;;23.51;69.93;99846.69;5018731;28;20116;-76
2021/06/18 02:04:13;;;;;;;14.02;7.50;;;;;;;23.45;69.95;99853.72;5018727;28;20132;-75
2021/06/18 02:06:41;;;;;;;13.50;7.80;;;;;;;23.55;69.60;99853.47;5017503;28;20050;-75
2021/06/18 02:09:09;;;;;;;16.90;8.57;;;;;;;23.46;69.98;99839.09;5018795;28;20119;-75
2021/06/18 02:11:38;;;;;;;18.58;8.77;;;;;;;23.52;69.89;99826.59;5018476;28;20104;-76
2021/06/18 02:14:10;;;;;;;12.40;8.77;;;;;;;23.60;69.69;99818.31;5018724;28;20424;-75
2021/06/18 02:16:41;;;;;;;11.98;7.38;;;;;;;23.54;69.92;99829.13;5017477;28;20060;-74
2021/06/18 02:19:09;;;;;;;15.95;9.15;;;;;;;23.51;70.21;99838.50;5015886;28;20061;-75
2021/06/18 02:21:37;;;;;;;15.40;9.82;;;;;;;23.56;69.99;99829.78;4998901;28;20460;-76
2021/06/18 02:24:04;;;;;;;22.92;11.18;;;;;;;23.51;69.89;99829.47;4997891;28;20054;-76
2021/06/18 02:26:32;;;;;;;15.20;10.60;;;;;;;23.43;70.05;99825.81;4998505;28;20094;-76
2021/06/18 02:28:58;;;;;;;20.98;11.57;;;;;;;23.49;69.96;99821.53;4998887;28;20050;-76
2021/06/18 02:31:28;;;;;;;24.63;11.30;;;;;;;23.44;70.20;99826.69;4998893;28;20461;-76
2021/06/18 02:33:55;;;;;;;16.83;10.57;;;;;;;23.39;70.19;99824.53;4998589;28;20050;-76
2021/06/18 02:36:22;;;;;;;19.08;11.07;;;;;;;23.29;71.09;99821.19;4998543;28;20062;-75
2021/06/18 02:38:49;;;;;;;20.17;10.88;;;;;;;23.17;70.66;99799.00;4998049;28;20054;-76
2021/06/18 02:41:16;;;;;;;14.60;10.15;;;;;;;23.24;71.00;99831.78;4998634;28;20325;-76
2021/06/18 02:43:43;;;;;;;14.02;10.50;;;;;;;23.25;70.89;99836.22;4997616;28;20455;-75
2021/06/18 02:46:38;;;;;;;17.42;10.52;;;;;;;23.07;71.07;99802.00;4997730;28;20085;-75
2021/06/18 02:49:13;;;;;;;18.77;9.90;;;;;;;23.08;71.47;99814.56;4997471;28;20097;-76
2021/06/18 02:52:08;;;;;;;14.45;8.85;;;;;;;23.14;71.23;99846.50;4998246;28;20050;-76
2021/06/18 02:54:45;;;;;;;17.88;8.77;;;;;;;23.11;71.46;99846.88;4997958;28;20424;-76
2021/06/18 02:57:21;;;;;;;13.30;9.10;;;;;;;22.99;71.61;99830.13;4998171;28;20061;-75
2021/06/18 03:00:07;;;;;;;14.40;8.80;;;;;;;23.01;72.32;99813.63;4997078;28;20113;-76
2021/06/18 03:02:42;;;;;;;17.65;8.35;;;;;;;23.11;71.84;99844.16;4998045;28;20348;-76
2021/06/18 03:05:12;;;;;;;16.42;8.60;;;;;;;23.05;71.58;99821.22;4997862;28;20050;-75
2021/06/18 03:07:45;;;;;;;19.15;8.77;;;;;;;23.00;72.19;99809.22;4997840;28;20090;-76
2021/06/18 03:10:15;;;;;;;16.50;8.43;;;;;;;23.00;72.49;99811.94;4997991;28;20050;-76
2021/06/18 03:12:46;;;;;;;16.88;8.02;;;;;;;22.91;72.32;99809.28;4997041;28;20325;-75
2021/06/18 03:15:14;;;;;;;19.63;8.10;;;;;;;22.98;72.58;99827.59;4998133;28;20065;-76
2021/06/18 03:17:42;;;;;;;15.30;8.10;;;;;;;22.98;72.09;99833.06;4997578;28;20473;-75
2021/06/18 03:20:21;;;;;;;14.68;8.48;;;;;;;22.89;72.55;99821.38;5008526;28;20394;-75
2021/06/18 03:22:52;;;;;;;15.75;7.72;;;;;;;22.73;72.68;99800.59;5016565;28;20436;-75
2021/06/18 03:25:21;;;;;;;14.77;7.72;;;;;;;22.86;72.99;99830.75;5018129;28;20050;-76
2021/06/18 03:27:48;;;;;;;15.82;7.88;;;;;;;22.83;72.77;99828.41;5018534;28;20419;-76
2021/06/18 03:30:16;;;;;;;18.88;7.97;;;;;;;22.84;73.22;99835.53;5017492;28;20050;-76
2021/06/18 03:32:46;;;;;;;13.82;7.05;;;;;;;22.84;73.45;99840.13;5017266;28;20108;-76
2021/06/18 03:35:15;;;;;;;13.77;7.80;;;;;;;22.86;73.28;99843.50;5017199;28;20420;-76
2021/06/18 03:37:42;;;;;;;15.55;8.63;;;;;;;22.83;73.03;99844.75;5017037;28;20448;-76
2021/06/18 03:40:09;;;;;;;18.48;7.95;;;;;;;22.84;73.15;99853.72;5016925;28;20057;-75
2021/06/18 03:42:38;;;;;;;14.73;8.13;;;;;;;22.85;73.07;99849.97;5016907;28;20061;-76
2021/06/18 03:45:06;;;;;;;15.60;8.52;;;;;;;22.77;73.49;99853.63;5016972;28;20096;-76
2021/06/18 03:47:34;;;;;;;21.88;8.32;;;;;;;22.81;73.53;99871.25;5017088;28;20050;-76
2021/06/18 03:50:02;;;;;;;15.45;7.38;;;;;;;22.87;73.70;99872.44;5016552;28;20124;-76
2021/06/18 03:52:30;;;;;;;14.57;9.07;;;;;;;22.91;72.80;99874.59;5016824;28;20112;-76
2021/06/18 03:54:57;;;;;;;16.50;8.18;;;;;;;23.00;73.36;99874.53;5031738;28;20046;-76
2021/06/18 03:57:24;;;;;;;15.35;8.07;;;;;;;22.97;72.84;99888.47;5016232;28;20053;-77
2021/06/18 03:59:52;;;;;;;17.70;7.82;;;;;;;22.87;73.44;99892.31;5015857;28;20387;-76
2021/06/18 04:02:20;;;;;;;16.05;8.77;;;;;;;22.87;73.22;99888.75;5016647;28;20340;-76
2021/06/18 04:04:48;;;;;;;12.57;8.63;;;;;;;22.92;73.19;99883.59;5016382;28;20359;-76
2021/06/18 04:07:15;;;;;;;18.13;9.30;;;;;;;22.93;73.33;99888.00;5016340;28;20077;-77
2021/06/18 04:09:42;;;;;;;14.02;9.18;;;;;;;22.95;73.10;99876.94;5016270;28;20119;-76
2021/06/18 04:12:10;;;;;;;19.35;9.75;;;;;;;22.80;73.97;99861.41;5016286;28;20144;-76
2021/06/18 04:14:37;;;;;;;13.77;8.93;;;;;;;22.92;73.78;99865.41;5016628;28;20046;-76
2021/06/18 04:17:05;;;;;;;14.88;9.38;;;;;;;22.96;73.79;99865.03;5016203;28;20058;-76
2021/06/18 04:19:33;;;;;;;18.98;10.63;;;;;;;22.92;73.69;99862.69;5010380;28;20108;-76
2021/06/18 04:22:05;;;;;;;23.58;10.30;;;;;;;22.87;73.24;99847.94;4996466;28;20333;-75
2021/06/18 04:24:33;;;;;;;23.73;10.30;;;;;;;22.90;73.84;99855.72;4996653;28;20112;-75
2021/06/18 04:27:00;;;;;;;19.08;10.52;;;;;;;22.95;73.79;99847.00;4996687;28;20132;-75
2021/06/18 04:29:26;;;;;;;20.92;10.07;;;;;;;22.92;74.21;99832.75;4996650;28;20054;-76
2021/06/18 04:31:53;;;;;;;16.27;8.70;;;;;;;22.92;74.21;99837.34;4996627;28;20066;-76
2021/06/18 04:34:20;;;;;;;16.40;8.63;;;;;;;23.03;74.22;99845.06;4996390;28;20050;-76
2021/06/18 04:36:47;;;;;;;15.68;9.45;;;;;;;23.01;74.35;99846.28;4994762;28;20058;-76
2021/06/18 04:39:14;;;;;;;14.05;8.50;;;;;;;22.98;74.45;99841.22;4995508;28;20050;-75
2021/06/18 04:41:41;;;;;;;15.70;9.13;;;;;;;22.89;74.77;99840.44;4996642;28;20062;-75
2021/06/18 04:44:07;;;;;;;15.80;8.90;;;;;;;22.95;74.75;99839.69;4996312;28;20050;-75
2021/06/18 04:46:35;;;;;;;16.45;8.13;;;;;;;23.01;74.57;99833.53;4995998;28;20100;-75
2021/06/18 04:49:02;;;;;;;15.50;9.00;;;;;;;23.06;74.51;99825.63;4994643;28;20440;-76
2021/06/18 04:51:29;;;;;;;15.85;8.70;;;;;;;23.10;74.20;99828.84;4996226;28;20461;-76
2021/06/18 04:53:56;;;;;;;16.45;8.30;;;;;;;23.16;73.08;99833.53;4996166;28;20054;-75
2021/06/18 04:56:23;;;;;;;20.35;9.23;;;;;;;23.17;73.25;99837.13;5010708;28;20387;-74
2021/06/18 04:58:50;;;;;;;15.95;8.55;;;;;;;23.18;72.97;99839.66;4993932;28;20432;-74
2021/06/18 05:01:17;;;;;;;11.48;8.23;;;;;;;23.18;72.85;99847.84;5009391;28;20057;-74
2021/06/18 05:03:44;;;;;;;12.98;8.00;;;;;;;23.24;72.37;99856.28;4994432;28;20093;-74
2021/06/18 05:06:11;;;;;;;15.07;7.85;;;;;;;23.25;72.15;99868.88;4994110;28;20574;-73
2021/06/18 05:08:38;;;;;;;16.02;8.98;;;;;;;23.23;72.36;99860.03;4994190;28;20108;-74
2021/06/18 05:11:04;;;;;;;14.90;8.38;;;;;;;23.34;71.32;99867.78;4993525;28;20054;-74
2021/06/18 05:13:31;;;;;;;14.27;8.07;;;;;;;23.31;71.90;99870.91;4995678;28;20502;-73
2021/06/18 05:15:58;;;;;;;20.50;8.75;;;;;;;23.41;71.29;99863.28;4995805;28;20046;-73
2021/06/18 05:18:28;;;;;;;15.10;8.38;;;;;;;23.37;71.33;99869.31;4995904;28;20137;-74
2021/06/18 05:20:55;;;;;;;10.55;7.78;;;;;;;23.56;70.88;99884.25;5013042;28;20056;-74
2021/06/18 05:23:22;;;;;;;17.98;8.75;;;;;;;23.68;69.56;99884.63;5015515;28;20045;-75
2021/06/18 05:25:48;;;;;;;16.67;8.60;;;;;;;23.64;70.00;99889.63;5014233;28;20054;-76
2021/06/18 05:28:15;;;;;;;21.67;9.77;;;;;;;23.65;69.78;99896.78;5015303;28;20046;-74
2021/06/18 05:30:42;;;;;;;14.27;7.90;;;;;;;23.60;69.54;99905.47;5015369;28;20124;-73
2021/06/18 05:33:09;;;;;;;13.20;8.68;;;;;;;23.66;69.31;99903.91;5006386;28;20108;-74
2021/06/18 05:35:35;;;;;;;14.73;8.75;;;;;;;23.64;70.02;99895.06;5005759;28;20579;-76
2021/06/18 05:38:02;;;;;;;18.48;8.35;;;;;;;23.68;69.69;99910.00;5003972;28;20046;-76
2021/06/18 05:40:29;;;;;;;19.83;8.65;;;;;;;23.50;69.44;99887.72;5005535;28;20058;-77
2021/06/18 05:42:56;;;;;;;13.57;8.48;;;;;;;23.75;68.94;99904.66;5003643;28;20045;-76
2021/06/18 05:45:23;;;;;;;14.95;8.57;;;;;;;23.66;69.85;99901.19;5005795;28;20428;-75
2021/06/18 05:47:50;;;;;;;18.58;9.02;;;;;;;23.63;69.96;99914.34;5005070;28;20085;-76
2021/06/18 05:50:17;;;;;;;14.00;8.05;;;;;;;23.69;69.69;99919.88;5005595;28;20070;-75
2021/06/18 05:52:44;;;;;;;19.17;8.65;;;;;;;23.51;70.65;99903.03;5003412;28;20139;-77
2021/06/18 05:55:11;;;;;;;17.70;9.77;;;;;;;23.58;71.02;99928.50;5010539;28;20041;-75
2021/06/18 05:57:38;;;;;;;16.42;8.63;;;;;;;23.64;69.67;99916.84;5005960;28;20416;-77
2021/06/18 06:00:06;;;;;;;18.63;9.05;;;;;;;23.64;69.48;99916.84;5004169;28;20046;-74
2021/06/18 06:02:33;;;;;;;17.92;8.75;;;;;;;23.63;69.73;99908.88;5003742;28;20049;-75
2021/06/18 06:05:00;;;;;;;17.35;8.82;;;;;;;23.57;69.77;99915.91;5003437;28;20054;-74
2021/06/18 06:07:26;;;;;;;15.32;8.40;;;;;;;23.44;70.70;99917.38;5005878;28;20050;-77
2021/06/18 06:09:53;;;;;;;14.77;8.35;;;;;;;23.41;70.89;99922.34;5010894;28;20086;-77
2021/06/18 06:12:19;;;;;;;11.68;8.13;;;;;;;23.35;71.18;99915.78;5011779;28;20451;-76
2021/06/18 06:14:49;;;;;;;12.73;8.40;;;;;;;23.29;71.34;99908.31;5014751;28;20055;-76
2021/06/18 06:17:17;;;;;;;16.58;9.35;;;;;;;23.05;74.32;99888.44;5015114;28;20121;-76
2021/06/18 06:19:44;;;;;;;18.92;9.55;;;;;;;22.93;76.06;99888.88;5005885;28;20050;-76
2021/06/18 06:22:11;;;;;;;22.08;10.63;;;;;;;22.70;79.59;99879.88;4995806;28;20066;-76
2021/06/18 06:24:37;;;;;;;20.48;10.02;;;;;;;22.44;80.73;99867.41;4997521;28;20050;-76
2021/06/18 06:27:04;;;;;;;17.90;11.05;;;;;;;22.35;80.04;99883.75;4998472;28;20800;-77
2021/06/18 06:29:31;;;;;;;15.13;10.40;;;;;;;22.18;80.30;99876.72;4998891;28;20054;-76
2021/06/18 06:32:01;;;;;;;17.70;10.75;;;;;;;22.17;81.15;99888.59;4999057;28;20192;-76
2021/06/18 06:34:28;;;;;;;24.73;11.52;;;;;;;22.05;81.56;99874.56;4998807;28;20046;-77
2021/06/18 06:36:54;;;;;;;18.05;11.32;;;;;;;22.20;81.82;99893.69;4998588;28;20047;-78
2021/06/18 06:39:21;;;;;;;15.60;10.40;;;;;;;22.19;80.54;99892.00;4998627;28;20360;-77
2021/06/18 06:41:48;;;;;;;18.13;11.18;;;;;;;22.20;81.31;99886.38;5000560;28;20057;-77
2021/06/18 06:44:14;;;;;;;18.52;10.35;;;;;;;22.25;82.25;99897.59;5002050;28;20050;-76
2021/06/18 06:46:41;;;;;;;20.20;11.57;;;;;;;22.30;82.15;99893.47;5002328;28;20470;-76
2021/06/18 06:49:08;;;;;;;18.63;11.43;;;;;;;22.31;82.27;99876.97;4998628;28;20121;-77
2021/06/18 06:51:35;;;;;;;18.80;11.20;;;;;;;22.28;82.24;99863.72;5013750;28;20059;-76
2021/06/18 06:54:03;;;;;;;28.45;11.27;;;;;;;22.22;80.75;99854.44;5014113;28;20058;-76
2021/06/18 06:56:31;;;;;;;21.60;12.85;;;;;;;22.24;82.00;99865.97;4998697;28;20046;-76
2021/06/18 06:58:58;;;;;;;22.48;11.82;;;;;;;22.19;80.64;99881.13;4998428;28;20058;-77
2021/06/18 07:01:25;;;;;;;16.90;11.45;;;;;;;22.31;81.03;99893.28;4998497;28;20069;-77
2021/06/18 07:03:52;;;;;;;19.08;11.65;;;;;;;22.36;81.01;99901.78;4998240;28;20054;-77
2021/06/18 07:06:18;;;;;;;21.60;12.10;;;;;;;22.25;80.93;99881.28;4998090;28;20121;-77
2021/06/18 07:08:45;;;;;;;23.40;12.30;;;;;;;22.44;80.81;99890.00;4998062;28;20493;-76
2021/06/18 07:11:12;;;;;;;26.98;12.32;;;;;;;22.47;81.23;99896.94;4997882;28;20061;-76
2021/06/18 07:13:38;;;;;;;21.10;14.20;;;;;;;22.54;80.46;99894.41;4998219;28;20050;-75
2021/06/18 07:16:05;;;;;;;21.42;12.80;;;;;;;22.61;81.17;99898.09;4997090;28;20046;-76
2021/06/18 07:18:35;;;;;;;20.02;13.27;;;;;;;22.65;79.77;99897.56;4996796;28;20058;-77
2021/06/18 07:21:02;;;;;;;21.27;14.50;;;;;;;22.81;78.83;99906.63;5030863;28;20096;-79
2021/06/18 07:23:29;;;;;;;22.20;13.00;;;;;;;22.87;78.87;99905.91;5017477;28;20057;-76
2021/06/18 07:25:58;;;;;;;21.25;13.38;;;;;;;23.01;79.12;99911.59;5016317;28;20108;-78
2021/06/18 07:28:24;;;;;;;25.48;12.68;;;;;;;23.09;78.35;99913.41;5017298;28;20104;-76
2021/06/18 07:30:51;;;;;;;26.90;13.48;;;;;;;23.18;78.90;99915.91;5017195;28;20359;-76
2021/06/18 07:33:19;;;;;;;20.73;12.20;;;;;;;23.24;77.24;99911.59;5016898;28;20064;-76
2021/06/18 07:35:46;;;;;;;16.27;12.85;;;;;;;23.28;78.38;99921.09;5015800;28;20497;-76
2021/06/18 07:38:12;;;;;;;25.00;12.77;;;;;;;23.29;77.17;99909.16;5016259;28;20053;-76
2021/06/18 07:40:39;;;;;;;22.50;12.75;;;;;;;23.50;76.94;99928.56;5016965;28;20423;-76
2021/06/18 07:43:06;;;;;;;18.90;12.40;;;;;;;23.46;75.86;99909.03;5032311;28;20089;-76
2021/06/18 07:45:32;;;;;;;14.25;12.73;;;;;;;23.63;76.47;99923.34;5016787;28;20753;-77
2021/06/18 07:48:00;;;;;;;18.98;13.52;;;;;;;23.77;75.52;99915.38;5017028;28;20046;-76
2021/06/18 07:50:26;;;;;;;18.33;15.05;;;;;;;23.72;73.84;99918.66;5016862;28;20085;-76
2021/06/18 07:52:53;;;;;;;24.00;15.20;;;;;;;23.65;73.93;99901.38;5017352;28;20053;-77
2021/06/18 07:55:24;;;;;;;25.52;15.88;;;;;;;23.58;74.59;99895.81;5016805;28;20391;-77
2021/06/18 07:57:52;;;;;;;21.48;14.20;;;;;;;23.68;74.83;99901.84;5016623;28;20104;-77
2021/06/18 08:00:19;;;;;;;24.73;15.00;;;;;;;23.66;76.40;99897.59;5016802;28;20383;-77
2021/06/18 08:02:46;;;;;;;24.90;15.38;;;;;;;23.74;75.12;99895.66;5017542;28;20351;-77
2021/06/18 08:05:13;;;;;;;23.85;15.70;;;;;;;23.90;75.50;99904.66;5015793;28;20057;-76
2021/06/18 08:07:42;;;;;;;27.98;14.73;;;;;;;24.10;74.68;99910.44;5016651;28;20050;-77
2021/06/18 08:10:12;;;;;;;27.25;14.27;;;;;;;24.33;70.84;99897.69;5016576;28;20333;-76
2021/06/18 08:12:40;;;;;;;;;;;;;;;24.28;72.66;99896.41;5016002;28;20137;-77
2021/06/18 08:15:07;;;;;;;25.67;15.70;;;;;;;24.33;71.32;99892.25;5016762;28;20020;-76
2021/06/18 08:17:35;;;;;;;22.27;14.93;;;;;;;24.44;70.83;99899.94;5031827;28;20049;-77
2021/06/18 08:20:04;;;;;;;23.30;14.13;;;;;;;24.40;71.90;99887.75;5006358;28;20058;-76
2021/06/18 08:22:31;;;;;;;20.30;15.50;;;;;;;24.52;71.46;99894.38;4997050;28;20138;-75
2021/06/18 08:24:57;;;;;;;26.27;16.50;;;;;;;24.59;70.17;99891.72;4995605;28;20485;-76
2021/06/18 08:27:24;;;;;;;25.23;15.07;;;;;;;24.65;71.61;99895.56;4995566;28;20120;-76
2021/06/18 08:29:52;;;;;;;25.05;15.10;;;;;;;24.74;69.96;99888.97;4996423;28;20058;-76
2021/06/18 08:32:20;;;;;;;19.35;14.98;;;;;;;24.83;69.68;99891.59;4996278;28;20050;-77
2021/06/18 08:34:47;;;;;;;22.33;15.57;;;;;;;24.92;68.82;99896.72;4996401;28;20416;-77
2021/06/18 08:37:15;;;;;;;29.45;15.88;;;;;;;25.08;68.63;99895.63;4996394;28;20108;-77
2021/06/18 08:39:42;;;;;;;21.38;15.32;;;;;;;25.04;68.62;99880.66;4996633;28;20073;-77
2021/06/18 08:42:10;;;;;;;19.55;14.40;;;;;;;25.14;68.92;99874.00;4996388;28;20101;-77
2021/06/18 08:44:36;;;;;;;17.98;13.57;;;;;;;25.35;68.44;99884.91;4995571;28;20105;-77
2021/06/18 08:47:04;;;;;;;25.02;11.75;;;;;;;25.48;68.08;99894.22;4996315;28;20054;-77
2021/06/18 08:49:35;;;;;;;21.23;13.20;;;;;;;25.70;65.61;99881.41;4996030;28;20145;-77
2021/06/18 08:52:02;;;;;;;14.23;10.82;;;;;;;25.75;65.84;99889.84;4995910;28;20070;-76
2021/06/18 08:54:41;;;;;;;20.85;10.43;;;;;;;25.82;66.04;99878.94;4996080;28;20050;-77
2021/06/18 08:57:14;;;;;;;16.92;9.77;;;;;;;25.88;65.27;99872.66;4995933;28;20077;-77
2021/06/18 08:59:42;;;;;;;13.80;10.05;;;;;;;25.98;65.62;99876.94;4996236;28;20277;-77
2021/06/18 09:02:10;;;;;;;16.10;8.82;;;;;;;26.13;63.13;99879.50;4995880;28;20108;-77
2021/06/18 09:05:07;;;;;;;15.57;8.63;;;;;;;26.23;64.01;99865.50;4996105;28;20452;-76
2021/06/18 09:08:00;;;;;;;14.07;8.68;;;;;;;26.39;61.45;99876.09;4996009;28;20391;-77
2021/06/18 09:10:36;;;;;;;14.07;7.88;;;;;;;26.41;62.04;99867.66;4996148;28;20078;-77
2021/06/18 09:13:08;;;;;;;19.40;8.43;;;;;;;26.45;62.84;99874.41;4996234;28;20138;-76
2021/06/18 09:15:37;;;;;;;17.42;8.25;;;;;;;26.55;62.89;99863.94;4995268;28;20116;-76
2021/06/18 09:18:32;;;;;;;13.85;7.25;;;;;;;26.66;60.99;99870.69;4994596;28;20043;-76
2021/06/18 09:21:02;;;;;;;12.98;6.55;;;;;;;26.64;61.13;99861.81;5012323;28;20050;-77
2021/06/18 09:23:35;;;;;;;14.25;5.72;;;;;;;26.61;59.73;99858.66;5015304;28;20046;-77
2021/06/18 09:26:20;;;;;;;15.88;5.90;;;;;;;26.82;57.16;99860.38;5015319;28;20088;-77
2021/06/18 09:29:13;;;;;;;14.32;6.13;;;;;;;26.98;58.35;99864.66;5015263;28;20081;-77
2021/06/18 09:31:52;;;;;;;14.40;6.25;;;;;;;27.11;57.32;99866.53;5015357;28;20100;-76
2021/06/18 09:34:47;;;;;;;11.10;5.75;;;;;;;27.15;57.64;99859.59;5014417;28;20046;-77
2021/06/18 09:37:25;;;;;;;10.60;5.47;;;;;;;27.34;57.44;99855.16;5015324;28;20045;-77
2021/06/18 09:39:58;;;;;;;10.15;4.72;;;;;;;27.31;54.20;99830.94;5015682;28;20085;-77
2021/06/18 09:42:49;;;;;;;12.37;4.97;;;;;;;27.18;54.83;99837.25;5015379;28;20057;-77
2021/06/18 09:45:21;;;;;;;10.95;4.55;;;;;;;27.32;56.05;99835.34;5015338;28;20321;-76
2021/06/18 09:47:49;;;;;;;13.35;5.15;;;;;;;27.52;54.04;99837.22;5015106;28;20053;-78
2021/06/18 09:50:15;;;;;;;10.10;5.53;;;;;;;27.62;53.38;99840.38;5014924;28;20359;-77
2021/06/18 09:52:43;;;;;;;9.88;5.05;;;;;;;27.58;55.08;99830.06;5015332;28;20065;-77
2021/06/18 09:55:23;;;;;;;8.05;4.72;;;;;;;27.76;54.10;99827.50;5014390;28;20336;-77
2021/06/18 09:57:56;;;;;;;10.90;4.97;;;;;;;27.79;54.42;99824.31;5018803;28;20490;-77
2021/06/18 10:00:24;;;;;;;10.27;5.70;;;;;;;27.83;52.27;99826.63;5018116;28;20290;-77
2021/06/18 10:02:53;;;;;;;14.82;5.40;;;;;;;27.79;52.17;99829.78;5018727;28;20427;-77
2021/06/18 10:05:27;;;;;;;13.27;4.85;;;;;;;27.77;53.51;99828.31;5018748;28;20398;-77
2021/06/18 10:07:56;;;;;;;8.50;4.70;;;;;;;27.76;53.91;99841.19;5017442;28;20415;-77
2021/06/18 10:10:28;;;;;;;9.93;4.60;;;;;;;27.85;53.05;99835.47;5034190;28;20057;-78
2021/06/18 10:12:56;;;;;;;12.70;4.82;;;;;;;27.95;54.16;99835.88;5018912;28;20101;-77
2021/06/18 10:15:26;;;;;;;13.52;4.85;;;;;;;28.09;53.99;99819.38;5018594;28;20058;-77
2021/06/18 10:17:54;;;;;;;13.05;5.60;;;;;;;28.36;52.28;99822.00;5018500;28;20513;-78
2021/06/18 10:20:29;;;;;;;12.07;4.97;;;;;;;28.53;53.53;99827.81;5006633;28;20101;-77
2021/06/18 10:23:01;;;;;;;8.93;4.47;;;;;;;28.67;53.67;99837.63;4998190;28;20057;-78
2021/06/18 10:25:37;;;;;;;17.63;5.32;;;;;;;28.69;51.46;99831.91;4999092;28;20054;-77
2021/06/18 10:28:11;;;;;;;12.80;4.82;;;;;;;28.87;52.02;99832.00;4998525;28;20046;-77
2021/06/18 10:31:11;;;;;;;12.07;5.82;;;;;;;28.96;52.67;99832.59;4999233;28;20056;-78
2021/06/18 10:33:39;;;;;;;10.68;4.47;;;;;;;28.94;51.72;99836.63;4998936;28;20050;-77
2021/06/18 10:36:07;;;;;;;15.57;5.10;;;;;;;29.20;51.28;99834.72;4999045;28;20050;-77
2021/06/18 10:38:43;;;;;;;15.40;4.75;;;;;;;29.31;50.74;99828.50;4998711;28;20108;-77
2021/06/18 10:41:13;;;;;;;15.82;5.68;;;;;;;29.36;50.53;99823.13;4998670;28;20054;-78
2021/06/18 10:43:45;;;;;;;15.02;4.55;;;;;;;29.44;50.46;99819.25;4998727;28;20061;-77
2021/06/18 10:46:20;;;;;;;17.52;5.35;;;;;;;29.46;50.75;99819.03;4999464;28;20057;-78
2021/06/18 10:48:52;;;;;;;15.18;4.97;;;;;;;29.50;50.46;99812.03;4998079;28;20054;-78
2021/06/18 10:51:43;;;;;;;14.55;5.03;;;;;;;29.66;50.33;99807.84;4999822;28;20059;-78
2021/06/18 10:54:36;;;;;;;12.38;4.90;;;;;;;29.58;48.33;99794.41;4998510;28;20157;-78
2021/06/18 10:57:11;;;;;;;10.43;5.13;;;;;;;29.86;48.04;99798.50;4998632;28;20459;-79
2021/06/18 10:59:43;;;;;;;18.45;4.72;;;;;;;30.04;47.38;99805.88;4998261;28;20100;-78
2021/06/18 11:02:31;;;;;;;10.38;4.05;;;;;;;30.21;43.73;99806.97;4998192;28;20109;-78
2021/06/18 11:05:16;;;;;;;17.67;4.15;;;;;;;30.21;45.16;99806.97;4998301;28;20054;-78
2021/06/18 11:07:44;;;;;;;16.60;4.00;;;;;;;30.53;44.33;99799.53;4997456;28;20050;-79
2021/06/18 11:10:15;;;;;;;10.43;3.83;;;;;;;30.69;42.31;99798.88;4997212;28;20162;-78
2021/06/18 11:12:47;;;;;;;11.25;3.47;;;;;;;30.91;41.45;99803.81;4997867;28;20058;-78
2021/06/18 11:15:14;;;;;;;11.73;3.40;;;;;;;31.09;40.09;99807.56;4998070;28;20050;-78
2021/06/18 11:18:13;;;;;;;10.43;3.25;;;;;;;31.28;37.19;99809.16;4998099;28;20053;-77
2021/06/18 11:20:39;;;;;;;12.38;3.30;;;;;;;31.27;38.16;99807.47;5011614;28;20104;-75
2021/06/18 11:23:14;;;;;;;10.27;3.10;;;;;;;31.45;37.77;99797.38;5017095;28;20050;-76
2021/06/18 11:25:42;;;;;;;10.85;3.40;;;;;;;31.59;38.00;99797.97;5017327;28;20499;-77
2021/06/18 11:28:24;;;;;;;12.80;3.20;;;;;;;31.51;38.50;99801.94;5016974;28;20049;-77
2021/06/18 11:31:06;;;;;;;14.23;3.38;;;;;;;31.72;37.08;99791.34;5017207;28;20432;-76
2021/06/18 11:33:36;;;;;;;8.02;2.85;;;;;;;31.80;37.59;99787.38;5017342;28;20065;-76
2021/06/18 11:36:05;;;;;;;;;;;;;;;31.83;38.83;99786.91;5017303;28;20403;-76
2021/06/18 11:38:36;;;;;;;13.07;3.53;;;;;;;31.89;37.31;99779.56;5032035;28;19921;-76